createdAt,value
2018-08-07T00:01:07.380Z,52.25
2018-08-07T00:03:35.762Z,52.87
2018-08-07T00:06:04.453Z,52.59
2018-08-07T00:08:32.872Z,52.55
2018-08-07T00:11:01.109Z,52.93
2018-08-07T00:13:29.441Z,52.83
2018-08-07T00:15:58.197Z,54.00
2018-08-07T00:18:26.714Z,54.61
2018-08-07T00:20:56.292Z,55.01
2018-08-07T00:23:24.785Z,54.22
2018-08-07T00:25:53.216Z,54.53
2018-08-07T00:28:21.720Z,55.53
2018-08-07T00:30:50.761Z,55.82
2018-08-07T00:33:19.528Z,56.13
2018-08-07T00:35:47.660Z,56.35
2018-08-07T00:38:16.437Z,56.88
2018-08-07T00:40:44.804Z,57.07
2018-08-07T00:43:13.488Z,57.01
2018-08-07T00:45:42.241Z,56.65
2018-08-07T00:48:10.580Z,56.42
2018-08-07T00:50:40.312Z,56.32
2018-08-07T00:53:08.438Z,56.97
2018-08-07T00:55:37.267Z,56.77
2018-08-07T00:58:05.541Z,57.81
2018-08-07T01:00:33.992Z,58.07
2018-08-07T01:03:02.680Z,58.36
2018-08-07T01:05:30.806Z,58.18
2018-08-07T01:07:59.464Z,58.91
2018-08-07T01:10:28.197Z,58.96
2018-08-07T01:12:56.536Z,59.23
2018-08-07T01:15:24.987Z,59.28
2018-08-07T01:17:53.911Z,59.18
2018-08-07T01:20:23.396Z,59.18
2018-08-07T01:22:52.102Z,59.67
2018-08-07T01:25:24.996Z,59.68
2018-08-07T01:27:53.716Z,59.21
2018-08-07T01:30:24.177Z,59.84
2018-08-07T01:32:52.756Z,60.10
2018-08-07T01:35:20.873Z,60.48
2018-08-07T01:37:49.623Z,60.64
2018-08-07T01:40:18.034Z,61.01
2018-08-07T01:42:46.380Z,60.84
2018-08-07T01:45:14.786Z,60.38
2018-08-07T01:47:43.481Z,60.50
2018-08-07T01:50:17.401Z,60.37
2018-08-07T01:52:45.555Z,60.69
2018-08-07T01:55:21.244Z,60.69
2018-08-07T01:57:49.821Z,60.58
2018-08-07T02:00:18.144Z,59.50
2018-08-07T02:02:47.149Z,60.63
2018-08-07T02:05:15.432Z,61.15
2018-08-07T02:07:44.169Z,60.93
2018-08-07T02:10:14.490Z,61.53
2018-08-07T02:12:42.917Z,61.04
2018-08-07T02:15:12.200Z,61.59
2018-08-07T02:17:40.508Z,62.09
2018-08-07T02:20:10.709Z,61.48
2018-08-07T02:22:39.551Z,61.75
2018-08-07T02:25:09.389Z,62.38
2018-08-07T02:27:37.841Z,62.04
2018-08-07T02:30:07.397Z,61.66
2018-08-07T02:32:36.924Z,61.35
2018-08-07T02:35:05.953Z,62.04
2018-08-07T02:37:34.697Z,60.92
2018-08-07T02:40:03.391Z,61.30
2018-08-07T02:42:32.080Z,61.55
2018-08-07T02:45:00.753Z,61.45
2018-08-07T02:47:29.596Z,62.21
2018-08-07T02:49:57.714Z,62.23
2018-08-07T02:52:26.405Z,62.76
2018-08-07T02:54:54.560Z,63.52
2018-08-07T02:57:23.128Z,62.79
2018-08-07T02:59:51.557Z,63.46
2018-08-07T03:02:20.152Z,63.79
2018-08-07T03:04:48.880Z,63.67
2018-08-07T03:07:17.230Z,63.52
2018-08-07T03:09:46.262Z,63.37
2018-08-07T03:12:15.668Z,63.23
2018-08-07T03:14:43.792Z,63.69
2018-08-07T03:17:11.925Z,63.08
2018-08-07T03:19:40.576Z,62.87
2018-08-07T03:22:09.445Z,63.46
2018-08-07T03:24:38.215Z,63.91
2018-08-07T03:27:06.557Z,63.06
2018-08-07T03:29:34.920Z,63.52
2018-08-07T03:32:03.421Z,63.74
2018-08-07T03:34:32.164Z,64.37
2018-08-07T03:37:00.612Z,64.53
2018-08-07T03:39:29.264Z,64.86
2018-08-07T03:41:58.027Z,64.51
2018-08-07T03:44:26.625Z,64.58
2018-08-07T03:46:55.097Z,64.59
2018-08-07T03:49:24.174Z,64.75
2018-08-07T03:51:53.913Z,64.19
2018-08-07T03:54:22.101Z,64.12
2018-08-07T03:56:51.005Z,64.17
2018-08-07T03:59:20.555Z,65.10
2018-08-07T04:01:49.243Z,65.40
2018-08-07T04:04:18.382Z,65.35
2018-08-07T04:06:47.141Z,65.02
2018-08-07T04:09:15.618Z,65.16
2018-08-07T04:11:43.978Z,65.07
2018-08-07T04:14:12.654Z,65.26
2018-08-07T04:16:44.932Z,65.67
2018-08-07T04:19:13.300Z,65.71
2018-08-07T04:21:42.121Z,65.60
2018-08-07T04:24:10.596Z,65.58
2018-08-07T04:26:38.805Z,65.84
2018-08-07T04:29:07.564Z,65.90
2018-08-07T04:31:35.972Z,66.34
2018-08-07T04:34:04.356Z,66.26
2018-08-07T04:36:33.213Z,66.10
2018-08-07T04:39:01.914Z,65.78
2018-08-07T04:41:30.369Z,66.42
2018-08-07T04:43:59.356Z,65.72
2018-08-07T04:46:28.263Z,66.02
2018-08-07T04:48:56.716Z,66.08
2018-08-07T04:51:25.155Z,65.81
2018-08-07T04:53:53.504Z,65.90
2018-08-07T04:56:21.987Z,64.85
2018-08-07T04:58:50.172Z,65.66
2018-08-07T05:01:18.847Z,64.72
2018-08-07T05:03:47.184Z,64.65
2018-08-07T05:06:15.310Z,64.91
2018-08-07T05:08:43.768Z,64.67
2018-08-07T05:11:12.440Z,64.89
2018-08-07T05:13:41.358Z,64.47
2018-08-07T05:16:09.460Z,63.87
2018-08-07T05:18:38.445Z,63.76
2018-08-07T05:21:07.153Z,62.97
2018-08-07T05:23:35.850Z,63.01
2018-08-07T05:26:04.196Z,62.43
2018-08-07T05:28:32.677Z,62.84
2018-08-07T05:31:01.288Z,62.53
2018-08-07T05:33:29.416Z,61.71
2018-08-07T05:35:57.553Z,61.41
2018-08-07T05:38:26.169Z,62.16
2018-08-07T05:40:54.694Z,60.69
2018-08-07T05:43:23.328Z,60.82
2018-08-07T05:45:51.729Z,61.18
2018-08-07T05:48:20.242Z,60.37
2018-08-07T05:50:48.760Z,60.04
2018-08-07T05:53:17.384Z,59.50
2018-08-07T05:55:45.833Z,58.89
2018-08-07T05:58:15.018Z,58.10
2018-08-07T06:00:43.217Z,57.00
2018-08-07T06:03:11.586Z,56.83
2018-08-07T06:05:41.162Z,56.32
2018-08-07T06:08:09.478Z,56.10
2018-08-07T06:10:38.404Z,55.73
2018-08-07T06:13:07.076Z,55.49
2018-08-07T06:15:35.696Z,54.98
2018-08-07T06:18:04.436Z,55.08
2018-08-07T06:20:33.081Z,54.28
2018-08-07T06:23:01.962Z,53.07
2018-08-07T06:25:33.925Z,52.99
2018-08-07T06:28:02.233Z,52.83
2018-08-07T06:30:30.590Z,52.59
2018-08-07T06:32:59.332Z,51.69
2018-08-07T06:35:27.701Z,51.54
2018-08-07T06:37:56.329Z,51.17
2018-08-07T06:40:24.672Z,50.75
2018-08-07T06:42:53.509Z,49.62
2018-08-07T06:45:22.425Z,50.06
2018-08-07T06:47:50.546Z,48.64
2018-08-07T06:50:20.757Z,49.11
2018-08-07T06:52:50.058Z,47.77
2018-08-07T06:55:18.241Z,48.04
2018-08-07T06:57:46.341Z,47.33
2018-08-07T07:00:17.568Z,47.10
2018-08-07T07:02:45.758Z,46.27
2018-08-07T07:05:14.339Z,46.64
2018-08-07T07:07:43.145Z,45.85
2018-08-07T07:10:12.276Z,45.06
2018-08-07T07:12:40.693Z,44.84
2018-08-07T07:15:10.297Z,44.96
2018-08-07T07:17:38.777Z,43.59
2018-08-07T07:20:10.228Z,43.41
2018-08-07T07:22:38.678Z,42.71
2018-08-07T07:25:08.000Z,43.25
2018-08-07T07:27:36.452Z,42.58
2018-08-07T07:30:08.242Z,42.41
2018-08-07T07:32:37.177Z,40.81
2018-08-07T07:35:05.538Z,41.25
2018-08-07T07:37:34.168Z,39.99
2018-08-07T07:40:02.725Z,40.36
2018-08-07T07:42:31.772Z,40.20
2018-08-07T07:45:00.830Z,40.78
2018-08-07T07:47:29.797Z,39.55
2018-08-07T07:49:58.196Z,38.66
2018-08-07T07:52:27.000Z,38.57
2018-08-07T07:54:55.833Z,39.13
2018-08-07T07:57:25.293Z,38.23
2018-08-07T07:59:53.963Z,38.16
2018-08-07T08:02:22.416Z,37.32
2018-08-07T08:04:50.535Z,37.13
2018-08-07T08:07:19.425Z,37.41
2018-08-07T08:09:47.777Z,36.58
2018-08-07T08:12:17.158Z,36.90
2018-08-07T08:14:45.580Z,36.09
2018-08-07T08:17:14.056Z,36.57
2018-08-07T08:19:42.648Z,35.05
2018-08-07T08:22:11.337Z,35.24
2018-08-07T08:24:40.024Z,34.81
2018-08-07T08:27:09.097Z,34.62
2018-08-07T08:29:37.603Z,33.58
2018-08-07T08:32:05.939Z,34.11
2018-08-07T08:34:34.340Z,33.32
2018-08-07T08:37:02.783Z,33.62
2018-08-07T08:39:31.337Z,32.62
2018-08-07T08:41:59.549Z,33.34
2018-08-07T08:44:27.990Z,31.64
2018-08-07T08:46:56.404Z,31.72
2018-08-07T08:49:25.014Z,31.50
2018-08-07T08:51:53.893Z,31.40
2018-08-07T08:54:22.607Z,31.73
2018-08-07T08:56:51.055Z,31.36
2018-08-07T08:59:20.921Z,31.07
2018-08-07T09:01:49.053Z,31.44
2018-08-07T09:04:17.571Z,31.26
2018-08-07T09:06:45.947Z,30.76
2018-08-07T09:09:14.820Z,31.41
2018-08-07T09:11:43.164Z,30.45
2018-08-07T09:14:11.540Z,30.35
2018-08-07T09:16:40.279Z,31.39
2018-08-07T09:19:08.504Z,31.10
2018-08-07T09:21:37.406Z,30.44
2018-08-07T09:24:06.111Z,31.03
2018-08-07T09:26:34.715Z,30.84
2018-08-07T09:29:03.083Z,30.52
2018-08-07T09:31:31.521Z,29.76
2018-08-07T09:33:59.977Z,28.46
2018-08-07T09:36:28.808Z,28.12
2018-08-07T09:38:56.924Z,28.60
2018-08-07T09:41:25.020Z,28.26
2018-08-07T09:43:53.468Z,27.73
2018-08-07T09:46:22.524Z,28.82
2018-08-07T09:48:50.640Z,27.44
2018-08-07T09:51:19.334Z,28.67
2018-08-07T09:53:47.521Z,28.60
2018-08-07T09:56:15.620Z,27.61
2018-08-07T09:58:43.768Z,26.45
2018-08-07T10:01:17.561Z,28.57
2018-08-07T10:03:45.681Z,27.51
2018-08-07T10:06:14.008Z,27.25
2018-08-07T10:08:42.136Z,27.63
2018-08-07T10:11:10.345Z,26.35
2018-08-07T10:13:38.993Z,26.14
2018-08-07T10:16:07.205Z,26.11
2018-08-07T10:18:36.053Z,25.99
2018-08-07T10:21:04.151Z,26.17
2018-08-07T10:23:32.421Z,26.37
2018-08-07T10:26:00.737Z,26.84
2018-08-07T10:28:29.153Z,27.20
2018-08-07T10:30:57.847Z,27.70
2018-08-07T10:33:26.249Z,28.05
2018-08-07T10:35:54.557Z,27.67
2018-08-07T10:38:23.141Z,28.46
2018-08-07T10:40:52.220Z,28.15
2018-08-07T10:43:21.223Z,27.26
2018-08-07T10:45:49.868Z,27.10
2018-08-07T10:48:18.329Z,27.22
2018-08-07T10:50:46.913Z,26.97
2018-08-07T10:53:15.580Z,25.89
2018-08-07T10:55:43.931Z,26.77
2018-08-07T10:58:12.054Z,26.89
2018-08-07T11:00:41.213Z,26.90
2018-08-07T11:03:10.105Z,26.72
2018-08-07T11:05:38.847Z,26.66
2018-08-07T11:08:07.515Z,27.15
2018-08-07T11:10:35.885Z,27.01
2018-08-07T11:13:04.449Z,27.54
2018-08-07T11:15:33.843Z,25.86
2018-08-07T11:18:02.636Z,26.24
2018-08-07T11:20:31.085Z,26.46
2018-08-07T11:25:56.320Z,25.60
2018-08-07T11:28:24.748Z,26.14
2018-08-07T11:30:53.092Z,26.30
2018-08-07T11:33:21.508Z,25.86
2018-08-07T11:35:50.353Z,25.95
2018-08-07T11:38:19.283Z,26.17
2018-08-07T11:40:47.984Z,25.53
2018-08-07T11:43:16.368Z,25.75
2018-08-07T11:45:44.856Z,23.78
2018-08-07T11:48:13.162Z,24.09
2018-08-07T11:50:41.684Z,23.62
2018-08-07T11:53:10.229Z,24.12
2018-08-07T11:55:38.361Z,24.27
2018-08-07T11:58:06.996Z,24.55
2018-08-07T12:00:37.101Z,24.88
2018-08-07T12:03:07.655Z,25.72
2018-08-07T12:05:36.429Z,25.71
2018-08-07T12:08:05.169Z,24.97
2018-08-07T12:10:34.072Z,25.44
2018-08-07T12:13:02.388Z,23.92
2018-08-07T12:15:31.372Z,23.80
2018-08-07T12:18:00.068Z,24.05
2018-08-07T12:20:28.982Z,24.26
2018-08-07T12:22:57.325Z,25.04
2018-08-07T12:25:26.430Z,25.16
2018-08-07T12:27:54.968Z,25.70
2018-08-07T12:30:26.096Z,25.73
2018-08-07T12:32:54.219Z,24.33
2018-08-07T12:35:22.404Z,24.14
2018-08-07T12:37:50.880Z,24.99
2018-08-07T12:40:22.907Z,24.77
2018-08-07T12:42:52.059Z,23.75
2018-08-07T12:45:21.789Z,23.06
2018-08-07T12:47:50.692Z,22.90
2018-08-07T12:50:19.601Z,22.48
2018-08-07T12:52:47.948Z,22.88
2018-08-07T12:55:18.204Z,22.73
2018-08-07T12:57:47.088Z,22.41
2018-08-07T13:00:16.784Z,22.00
2018-08-07T13:02:45.054Z,22.09
2018-08-07T13:05:13.473Z,22.36
2018-08-07T13:07:42.174Z,21.66
2018-08-07T13:10:12.087Z,22.11
2018-08-07T13:12:41.364Z,22.71
2018-08-07T13:15:11.284Z,22.55
2018-08-07T13:17:40.015Z,21.85
2018-08-07T13:20:09.565Z,23.11
2018-08-07T13:22:38.977Z,23.31
2018-08-07T13:25:09.085Z,22.47
2018-08-07T13:27:38.185Z,23.11
2018-08-07T13:30:08.772Z,22.67
2018-08-07T13:32:37.199Z,22.55
2018-08-07T13:35:05.989Z,22.17
2018-08-07T13:37:34.605Z,22.92
2018-08-07T13:40:03.289Z,22.94
2018-08-07T13:42:32.317Z,22.48
2018-08-07T13:45:00.884Z,23.06
2018-08-07T13:47:29.304Z,22.52
2018-08-07T13:49:57.787Z,23.49
2018-08-07T13:52:26.188Z,22.86
2018-08-07T13:54:54.309Z,21.95
2018-08-07T13:57:22.432Z,22.42
2018-08-07T13:59:50.732Z,22.49
2018-08-07T14:02:19.495Z,22.90
2018-08-07T14:04:47.617Z,23.41
2018-08-07T14:07:15.737Z,22.46
2018-08-07T14:09:44.729Z,23.15
2018-08-07T14:12:13.417Z,21.91
2018-08-07T14:14:41.769Z,21.97
2018-08-07T14:17:10.406Z,22.50
2018-08-07T14:19:39.410Z,21.87
2018-08-07T14:22:08.216Z,22.39
2018-08-07T14:24:36.630Z,22.05
2018-08-07T14:27:04.783Z,22.15
2018-08-07T14:29:33.945Z,22.00
2018-08-07T14:32:02.504Z,21.50
2018-08-07T14:34:31.152Z,22.14
2018-08-07T14:36:59.625Z,21.79
2018-08-07T14:39:27.902Z,22.10
2018-08-07T14:41:56.924Z,22.78
2018-08-07T14:44:25.656Z,22.66
2018-08-07T14:46:53.776Z,22.99
2018-08-07T14:49:22.132Z,22.25
2018-08-07T14:51:50.832Z,22.40
2018-08-07T14:54:19.560Z,23.19
2018-08-07T14:56:48.080Z,23.31
2018-08-07T14:59:16.561Z,23.65
2018-08-07T15:01:45.677Z,23.20
2018-08-07T15:04:14.344Z,23.95
2018-08-07T15:06:42.799Z,23.80
2018-08-07T15:09:11.920Z,24.53
2018-08-07T15:11:40.584Z,23.42
2018-08-07T15:14:09.562Z,24.07
2018-08-07T15:16:38.044Z,23.24
2018-08-07T15:19:06.429Z,24.00
2018-08-07T15:21:34.792Z,23.50
2018-08-07T15:24:02.940Z,24.35
2018-08-07T15:26:31.616Z,24.37
2018-08-07T15:29:00.019Z,23.78
2018-08-07T15:31:28.976Z,23.67
2018-08-07T15:33:57.642Z,23.63
2018-08-07T15:36:25.785Z,24.27
2018-08-07T15:38:54.149Z,24.28
2018-08-07T15:41:22.907Z,23.70
2018-08-07T15:43:51.877Z,24.92
2018-08-07T15:46:20.280Z,23.62
2018-08-07T15:48:48.568Z,24.52
2018-08-07T15:51:17.023Z,24.14
2018-08-07T15:53:45.989Z,24.77
2018-08-07T15:56:14.972Z,24.65
2018-08-07T15:58:43.365Z,24.82
2018-08-07T16:01:11.490Z,24.35
2018-08-07T16:03:39.813Z,24.20
2018-08-07T16:06:07.933Z,24.47
2018-08-07T16:08:36.556Z,23.95
2018-08-07T16:11:05.225Z,23.72
2018-08-07T16:13:34.414Z,24.18
2018-08-07T16:16:02.541Z,24.28
2018-08-07T16:18:31.117Z,24.68
2018-08-07T16:20:59.472Z,24.09
2018-08-07T16:23:28.788Z,25.17
2018-08-07T16:25:57.141Z,24.41
2018-08-07T16:28:25.749Z,24.63
2018-08-07T16:30:53.865Z,24.56
2018-08-07T16:33:22.018Z,25.04
2018-08-07T16:35:50.427Z,24.36
2018-08-07T16:38:18.836Z,24.43
2018-08-07T16:40:47.285Z,23.93
2018-08-07T16:43:15.844Z,24.56
2018-08-07T16:45:44.542Z,24.29
2018-08-07T16:48:12.697Z,24.40
2018-08-07T16:50:40.942Z,25.00
2018-08-07T16:53:10.174Z,24.96
2018-08-07T16:55:38.613Z,24.69
2018-08-07T16:58:07.249Z,24.06
2018-08-07T17:00:35.818Z,25.08
2018-08-07T17:03:03.944Z,25.58
2018-08-07T17:05:32.420Z,24.37
2018-08-07T17:08:00.641Z,25.27
2018-08-07T17:10:29.369Z,25.53
2018-08-07T17:12:57.621Z,25.71
2018-08-07T17:15:25.884Z,25.24
2018-08-07T17:17:54.395Z,25.29
2018-08-07T17:20:24.680Z,24.99
2018-08-07T17:22:54.468Z,25.48
2018-08-07T17:25:23.414Z,25.64
2018-08-07T17:27:51.713Z,26.06
2018-08-07T17:30:22.684Z,26.46
2018-08-07T17:32:51.669Z,26.38
2018-08-07T17:35:22.192Z,26.91
2018-08-07T17:37:51.958Z,26.51
2018-08-07T17:40:25.415Z,26.86
2018-08-07T17:42:54.099Z,27.12
2018-08-07T17:45:22.709Z,26.68
2018-08-07T17:47:50.822Z,25.97
2018-08-07T17:50:20.809Z,26.53
2018-08-07T17:52:49.000Z,26.55
2018-08-07T17:55:17.289Z,26.47
2018-08-07T17:57:45.944Z,26.96
2018-08-07T18:00:16.573Z,26.69
2018-08-07T18:02:45.284Z,27.84
2018-08-07T18:05:13.461Z,27.13
2018-08-07T18:07:44.051Z,27.57
2018-08-07T18:10:12.801Z,28.04
2018-08-07T18:12:41.375Z,27.56
2018-08-07T18:15:12.304Z,28.47
2018-08-07T18:17:41.919Z,27.95
2018-08-07T18:20:12.636Z,28.80
2018-08-07T18:22:41.516Z,29.34
2018-08-07T18:25:10.497Z,29.57
2018-08-07T18:27:39.342Z,30.33
2018-08-07T18:30:26.696Z,31.23
2018-08-07T18:32:54.989Z,32.34
2018-08-07T18:35:25.265Z,33.29
2018-08-07T18:37:53.708Z,34.26
2018-08-07T18:40:22.144Z,33.32
2018-08-07T18:42:50.772Z,32.79
2018-08-07T18:45:19.145Z,32.95
2018-08-07T18:47:47.527Z,33.27
2018-08-07T18:50:17.460Z,33.26
2018-08-07T18:52:45.792Z,34.80
2018-08-07T18:55:14.791Z,34.98
2018-08-07T18:57:43.736Z,35.55
2018-08-07T19:00:14.281Z,35.52
2018-08-07T19:02:42.631Z,37.04
2018-08-07T19:05:14.507Z,37.08
2018-08-07T19:07:42.901Z,37.47
2018-08-07T19:10:11.994Z,37.79
2018-08-07T19:12:40.397Z,36.37
2018-08-07T19:15:09.649Z,36.77
2018-08-07T19:17:38.960Z,36.29
2018-08-07T19:20:08.733Z,35.38
2018-08-07T19:22:37.093Z,36.11
2018-08-07T19:25:06.812Z,36.81
2018-08-07T19:27:35.356Z,37.27
2018-08-07T19:30:11.341Z,37.25
2018-08-07T19:32:40.488Z,36.56
2018-08-07T19:35:09.562Z,36.25
2018-08-07T19:37:38.584Z,37.11
2018-08-07T19:40:09.961Z,37.20
2018-08-07T19:42:38.631Z,36.86
2018-08-07T19:45:08.768Z,36.85
2018-08-07T19:47:37.236Z,37.77
2018-08-07T19:50:06.637Z,38.37
2018-08-07T19:52:35.632Z,37.56
2018-08-07T19:55:04.437Z,39.38
2018-08-07T19:57:45.897Z,39.60
2018-08-07T20:00:17.327Z,39.44
2018-08-07T20:02:46.164Z,39.80
2018-08-07T20:05:14.964Z,40.31
2018-08-07T20:07:43.272Z,40.98
2018-08-07T20:10:12.849Z,41.74
2018-08-07T20:12:41.530Z,41.67
2018-08-07T20:15:13.489Z,41.11
2018-08-07T20:17:42.205Z,40.93
2018-08-07T20:20:10.693Z,41.33
2018-08-07T20:22:39.555Z,40.87
2018-08-07T20:25:08.960Z,41.17
2018-08-07T20:27:37.628Z,41.33
2018-08-07T20:30:28.876Z,41.45
2018-08-07T20:32:58.061Z,41.67
2018-08-07T20:35:26.336Z,41.25
2018-08-07T20:37:54.455Z,42.24
2018-08-07T20:40:25.176Z,42.61
2018-08-07T20:42:54.134Z,41.74
2018-08-07T20:45:22.752Z,42.45
2018-08-07T20:47:51.181Z,41.90
2018-08-07T20:50:20.795Z,41.81
2018-08-07T20:52:49.464Z,42.84
2018-08-07T20:55:17.898Z,42.03
2018-08-07T20:57:46.557Z,42.23
2018-08-07T21:00:18.872Z,43.01
2018-08-07T21:02:47.420Z,42.09
2018-08-07T21:05:15.583Z,41.52
2018-08-07T21:07:44.076Z,41.28
2018-08-07T21:10:14.370Z,41.32
2018-08-07T21:12:42.877Z,41.16
2018-08-07T21:15:11.963Z,40.09
2018-08-07T21:17:40.660Z,40.21
2018-08-07T21:20:10.878Z,40.44
2018-08-07T21:22:39.579Z,39.92
2018-08-07T21:25:10.408Z,41.03
2018-08-07T21:27:39.306Z,40.52
2018-08-07T21:30:10.816Z,41.50
2018-08-07T21:32:39.136Z,41.87
2018-08-07T21:35:08.703Z,41.95
2018-08-07T21:37:37.300Z,42.29
2018-08-07T21:40:05.641Z,41.69
2018-08-07T21:42:34.328Z,42.53
2018-08-07T21:45:02.766Z,42.60
2018-08-07T21:47:30.952Z,42.34
2018-08-07T21:49:59.692Z,42.79
2018-08-07T21:52:27.813Z,42.99
2018-08-07T21:54:56.248Z,42.75
2018-08-07T21:57:24.781Z,43.12
2018-08-07T21:59:53.579Z,43.36
2018-08-07T22:02:22.885Z,44.72
2018-08-07T22:04:51.315Z,44.95
2018-08-07T22:07:19.937Z,44.42
2018-08-07T22:09:48.754Z,45.42
2018-08-07T22:12:17.044Z,45.26
2018-08-07T22:14:46.026Z,45.86
2018-08-07T22:17:14.677Z,45.92
2018-08-07T22:19:42.782Z,45.83
2018-08-07T22:22:10.910Z,45.99
2018-08-07T22:24:39.824Z,45.89
2018-08-07T22:27:08.221Z,47.17
2018-08-07T22:29:36.621Z,47.13
2018-08-07T22:32:04.973Z,46.73
2018-08-07T22:34:33.365Z,47.43
2018-08-07T22:37:01.696Z,47.79
2018-08-07T22:39:29.876Z,47.02
2018-08-07T22:41:58.280Z,47.35
2018-08-07T22:44:26.567Z,48.02
2018-08-07T22:46:54.680Z,48.59
2018-08-07T22:49:24.131Z,47.68
2018-08-07T22:51:52.456Z,48.11
2018-08-07T22:54:20.560Z,48.82
2018-08-07T22:56:48.928Z,48.65
2018-08-07T22:59:17.028Z,47.94
2018-08-07T23:01:45.736Z,47.52
2018-08-07T23:04:13.841Z,48.36
2018-08-07T23:06:42.403Z,48.72
2018-08-07T23:09:10.591Z,48.75
2018-08-07T23:11:39.528Z,48.61
2018-08-07T23:14:08.333Z,48.29
2018-08-07T23:16:36.756Z,49.25
2018-08-07T23:19:04.909Z,49.30
2018-08-07T23:21:33.249Z,49.61
2018-08-07T23:24:01.770Z,50.41
2018-08-07T23:26:30.421Z,49.52
2018-08-07T23:28:59.143Z,50.23
2018-08-07T23:31:27.954Z,50.78
2018-08-07T23:33:56.412Z,49.98
2018-08-07T23:36:25.985Z,49.57
2018-08-07T23:38:54.937Z,49.71
2018-08-07T23:41:23.044Z,49.89
2018-08-07T23:43:51.699Z,49.34
2018-08-07T23:46:20.143Z,49.47
2018-08-07T23:48:49.180Z,49.48
2018-08-07T23:51:17.612Z,49.55
2018-08-07T23:53:45.895Z,50.10
2018-08-07T23:56:14.337Z,49.52
2018-08-07T23:58:42.968Z,49.49
